sensor_id;sensor_type;location;lat;lon;timestamp;pressure;altitude;pressure_sealevel;temperature;humidity
74370;BME280;71062;44.520;11.342;2023-10-09T00:02:07;101753.81;;;22.10;59.02
74370;BME280;71062;44.520;11.342;2023-10-09T00:04:33;101755.00;;;22.09;58.92
74370;BME280;71062;44.520;11.342;2023-10-09T00:07:03;101760.41;;;22.10;59.13
74370;BME280;71062;44.520;11.342;2023-10-09T00:09:28;101751.47;;;22.12;59.10
74370;BME280;71062;44.520;11.342;2023-10-09T00:11:58;101768.31;;;22.05;58.97
74370;BME280;71062;44.520;11.342;2023-10-09T00:14:27;101755.19;;;22.04;59.03
74370;BME280;71062;44.520;11.342;2023-10-09T00:17:04;101762.41;;;22.01;59.06
74370;BME280;71062;44.520;11.342;2023-10-09T00:19:36;101765.59;;;22.00;59.32
74370;BME280;71062;44.520;11.342;2023-10-09T00:22:02;101755.81;;;22.01;59.22
74370;BME280;71062;44.520;11.342;2023-10-09T00:24:49;101742.34;;;21.93;59.00
74370;BME280;71062;44.520;11.342;2023-10-09T00:27:16;101754.16;;;22.00;59.04
74370;BME280;71062;44.520;11.342;2023-10-09T00:29:46;101735.41;;;21.85;59.16
74370;BME280;71062;44.520;11.342;2023-10-09T00:32:16;101746.38;;;21.92;59.11
74370;BME280;71062;44.520;11.342;2023-10-09T00:34:43;101744.16;;;21.89;59.10
74370;BME280;71062;44.520;11.342;2023-10-09T00:37:10;101754.47;;;21.90;59.12
74370;BME280;71062;44.520;11.342;2023-10-09T00:39:44;101744.00;;;21.85;59.18
74370;BME280;71062;44.520;11.342;2023-10-09T00:42:13;101743.66;;;21.87;58.94
74370;BME280;71062;44.520;11.342;2023-10-09T00:44:41;101743.16;;;21.85;59.04
74370;BME280;71062;44.520;11.342;2023-10-09T00:47:09;101737.56;;;21.80;58.99
74370;BME280;71062;44.520;11.342;2023-10-09T00:50:03;101741.06;;;21.77;59.26
74370;BME280;71062;44.520;11.342;2023-10-09T00:52:37;101736.03;;;21.74;59.19
74370;BME280;71062;44.520;11.342;2023-10-09T00:55:17;101731.78;;;21.71;58.92
74370;BME280;71062;44.520;11.342;2023-10-09T00:57:55;101746.16;;;21.80;58.73
74370;BME280;71062;44.520;11.342;2023-10-09T01:00:24;101744.84;;;21.86;58.63
74370;BME280;71062;44.520;11.342;2023-10-09T01:03:08;101734.00;;;21.74;58.66
74370;BME280;71062;44.520;11.342;2023-10-09T01:05:51;101734.22;;;21.78;58.62
74370;BME280;71062;44.520;11.342;2023-10-09T01:08:43;101732.50;;;21.77;58.81
74370;BME280;71062;44.520;11.342;2023-10-09T01:11:12;101735.69;;;21.75;58.84
74370;BME280;71062;44.520;11.342;2023-10-09T01:13:46;101720.00;;;21.73;58.62
74370;BME280;71062;44.520;11.342;2023-10-09T01:16:20;101712.94;;;21.70;58.62
74370;BME280;71062;44.520;11.342;2023-10-09T01:18:54;101718.72;;;21.79;58.11
74370;BME280;71062;44.520;11.342;2023-10-09T01:21:23;101710.66;;;21.81;58.26
74370;BME280;71062;44.520;11.342;2023-10-09T01:23:57;101719.75;;;21.83;57.84
74370;BME280;71062;44.520;11.342;2023-10-09T01:26:33;101704.94;;;21.81;57.87
74370;BME280;71062;44.520;11.342;2023-10-09T01:29:05;101707.63;;;21.86;57.60
74370;BME280;71062;44.520;11.342;2023-10-09T01:31:36;101709.47;;;21.82;57.67
74370;BME280;71062;44.520;11.342;2023-10-09T01:34:10;101708.31;;;21.83;57.77
74370;BME280;71062;44.520;11.342;2023-10-09T01:36:38;101708.75;;;21.76;57.38
74370;BME280;71062;44.520;11.342;2023-10-09T01:39:05;101710.72;;;21.59;58.98
74370;BME280;71062;44.520;11.342;2023-10-09T01:41:54;101719.22;;;21.42;59.09
74370;BME280;71062;44.520;11.342;2023-10-09T01:44:27;101711.16;;;21.44;60.04
74370;BME280;71062;44.520;11.342;2023-10-09T01:47:06;101707.34;;;21.18;61.06
74370;BME280;71062;44.520;11.342;2023-10-09T01:49:39;101714.88;;;20.91;62.11
74370;BME280;71062;44.520;11.342;2023-10-09T01:52:12;101697.81;;;20.78;61.62
74370;BME280;71062;44.520;11.342;2023-10-09T01:54:45;101710.75;;;20.97;62.15
74370;BME280;71062;44.520;11.342;2023-10-09T01:57:16;101706.84;;;20.71;62.83
74370;BME280;71062;44.520;11.342;2023-10-09T01:59:47;101705.69;;;20.72;63.30
74370;BME280;71062;44.520;11.342;2023-10-09T02:02:18;101702.00;;;20.50;63.23
74370;BME280;71062;44.520;11.342;2023-10-09T02:05:02;101695.69;;;20.39;63.76
74370;BME280;71062;44.520;11.342;2023-10-09T02:07:40;101709.06;;;20.74;62.09
74370;BME280;71062;44.520;11.342;2023-10-09T02:10:12;101712.03;;;20.91;61.11
74370;BME280;71062;44.520;11.342;2023-10-09T02:12:58;101692.50;;;20.85;61.15
74370;BME280;71062;44.520;11.342;2023-10-09T02:15:29;101700.47;;;20.96;60.69
74370;BME280;71062;44.520;11.342;2023-10-09T02:18:15;101701.53;;;21.00;60.17
74370;BME280;71062;44.520;11.342;2023-10-09T02:23:25;101706.59;;;21.03;60.01
74370;BME280;71062;44.520;11.342;2023-10-09T02:25:59;101705.59;;;20.86;60.86
74370;BME280;71062;44.520;11.342;2023-10-09T02:28:30;101706.34;;;20.69;62.16
74370;BME280;71062;44.520;11.342;2023-10-09T02:30:58;101717.97;;;20.73;62.96
74370;BME280;71062;44.520;11.342;2023-10-09T02:33:26;101704.50;;;20.51;63.00
74370;BME280;71062;44.520;11.342;2023-10-09T02:35:56;101715.53;;;20.44;64.61
74370;BME280;71062;44.520;11.342;2023-10-09T02:38:25;101721.13;;;20.27;64.82
74370;BME280;71062;44.520;11.342;2023-10-09T02:40:51;101716.03;;;20.24;65.34
74370;BME280;71062;44.520;11.342;2023-10-09T02:43:31;101726.41;;;20.20;66.40
74370;BME280;71062;44.520;11.342;2023-10-09T02:46:10;101735.94;;;20.02;67.49
74370;BME280;71062;44.520;11.342;2023-10-09T02:48:43;101728.34;;;19.84;68.89
74370;BME280;71062;44.520;11.342;2023-10-09T02:51:11;101738.59;;;19.85;68.70
74370;BME280;71062;44.520;11.342;2023-10-09T02:53:46;101736.16;;;19.92;68.02
74370;BME280;71062;44.520;11.342;2023-10-09T02:56:15;101748.00;;;19.72;69.32
74370;BME280;71062;44.520;11.342;2023-10-09T02:58:43;101741.56;;;19.53;69.91
74370;BME280;71062;44.520;11.342;2023-10-09T03:01:12;101752.22;;;19.47;69.74
74370;BME280;71062;44.520;11.342;2023-10-09T03:03:41;101748.72;;;19.37;70.37
74370;BME280;71062;44.520;11.342;2023-10-09T03:06:14;101748.38;;;19.25;70.58
74370;BME280;71062;44.520;11.342;2023-10-09T03:08:44;101750.63;;;18.96;71.54
74370;BME280;71062;44.520;11.342;2023-10-09T03:11:13;101751.88;;;18.89;71.28
74370;BME280;71062;44.520;11.342;2023-10-09T03:13:43;101742.75;;;18.74;71.74
74370;BME280;71062;44.520;11.342;2023-10-09T03:16:13;101754.28;;;18.82;71.64
74370;BME280;71062;44.520;11.342;2023-10-09T03:18:49;101741.47;;;18.66;71.77
74370;BME280;71062;44.520;11.342;2023-10-09T03:21:15;101746.19;;;18.57;72.47
74370;BME280;71062;44.520;11.342;2023-10-09T03:23:47;101739.63;;;18.57;72.63
74370;BME280;71062;44.520;11.342;2023-10-09T03:26:17;101743.41;;;18.84;72.54
74370;BME280;71062;44.520;11.342;2023-10-09T03:28:47;101741.97;;;18.68;72.86
74370;BME280;71062;44.520;11.342;2023-10-09T03:31:13;101731.50;;;18.50;73.39
74370;BME280;71062;44.520;11.342;2023-10-09T03:33:39;101742.53;;;18.70;73.15
74370;BME280;71062;44.520;11.342;2023-10-09T03:36:05;101686.31;;;18.25;73.24
74370;BME280;71062;44.520;11.342;2023-10-09T03:38:37;101730.88;;;18.53;73.65
74370;BME280;71062;44.520;11.342;2023-10-09T03:41:05;101740.03;;;18.50;73.86
74370;BME280;71062;44.520;11.342;2023-10-09T03:43:37;101719.88;;;18.47;74.54
74370;BME280;71062;44.520;11.342;2023-10-09T03:46:05;101725.78;;;18.50;74.46
74370;BME280;71062;44.520;11.342;2023-10-09T03:48:33;101731.50;;;18.50;74.27
74370;BME280;71062;44.520;11.342;2023-10-09T03:51:05;101719.25;;;18.50;74.05
74370;BME280;71062;44.520;11.342;2023-10-09T03:53:50;101728.81;;;18.72;73.39
74370;BME280;71062;44.520;11.342;2023-10-09T03:56:20;101729.19;;;18.52;74.27
74370;BME280;71062;44.520;11.342;2023-10-09T03:58:50;101720.41;;;18.49;73.99
74370;BME280;71062;44.520;11.342;2023-10-09T04:01:26;101728.09;;;18.48;74.37
74370;BME280;71062;44.520;11.342;2023-10-09T04:04:00;101727.28;;;18.61;73.67
74370;BME280;71062;44.520;11.342;2023-10-09T04:06:27;101726.84;;;18.54;74.24
74370;BME280;71062;44.520;11.342;2023-10-09T04:09:04;101735.63;;;18.39;76.07
74370;BME280;71062;44.520;11.342;2023-10-09T04:11:52;101733.56;;;18.26;75.95
74370;BME280;71062;44.520;11.342;2023-10-09T04:14:37;101737.53;;;18.25;75.60
74370;BME280;71062;44.520;11.342;2023-10-09T04:17:13;101736.63;;;18.11;75.81
74370;BME280;71062;44.520;11.342;2023-10-09T04:19:44;101728.09;;;18.11;75.46
74370;BME280;71062;44.520;11.342;2023-10-09T04:22:38;101733.94;;;18.01;76.15
74370;BME280;71062;44.520;11.342;2023-10-09T04:25:20;101737.63;;;18.20;75.62
74370;BME280;71062;44.520;11.342;2023-10-09T04:27:57;101729.31;;;18.05;76.47
74370;BME280;71062;44.520;11.342;2023-10-09T04:30:38;101744.06;;;18.07;76.48
74370;BME280;71062;44.520;11.342;2023-10-09T04:33:20;101731.00;;;18.06;76.03
74370;BME280;71062;44.520;11.342;2023-10-09T04:36:09;101727.69;;;18.18;76.70
74370;BME280;71062;44.520;11.342;2023-10-09T04:38:58;101746.09;;;18.25;75.81
74370;BME280;71062;44.520;11.342;2023-10-09T04:41:30;101734.41;;;18.08;76.52
74370;BME280;71062;44.520;11.342;2023-10-09T04:44:10;101723.75;;;17.95;76.73
74370;BME280;71062;44.520;11.342;2023-10-09T04:46:51;101737.00;;;18.23;74.47
74370;BME280;71062;44.520;11.342;2023-10-09T04:49:37;101729.09;;;18.57;72.03
74370;BME280;71062;44.520;11.342;2023-10-09T04:52:27;101732.22;;;18.74;70.91
74370;BME280;71062;44.520;11.342;2023-10-09T04:54:59;101727.19;;;18.85;69.69
74370;BME280;71062;44.520;11.342;2023-10-09T04:57:39;101725.53;;;18.98;68.68
74370;BME280;71062;44.520;11.342;2023-10-09T05:00:15;101717.53;;;19.00;67.89
74370;BME280;71062;44.520;11.342;2023-10-09T05:03:08;101728.09;;;19.13;67.31
74370;BME280;71062;44.520;11.342;2023-10-09T05:05:39;101714.38;;;19.15;66.75
74370;BME280;71062;44.520;11.342;2023-10-09T05:10:51;101721.81;;;19.43;65.08
74370;BME280;71062;44.520;11.342;2023-10-09T05:13:31;101717.59;;;19.54;63.88
74370;BME280;71062;44.520;11.342;2023-10-09T05:16:18;101734.41;;;19.42;65.61
74370;BME280;71062;44.520;11.342;2023-10-09T05:18:49;101723.09;;;19.64;64.03
74370;BME280;71062;44.520;11.342;2023-10-09T05:24:01;101734.06;;;19.57;64.27
74370;BME280;71062;44.520;11.342;2023-10-09T05:26:40;101734.28;;;19.74;63.10
74370;BME280;71062;44.520;11.342;2023-10-09T05:29:12;101733.00;;;19.80;62.52
74370;BME280;71062;44.520;11.342;2023-10-09T05:31:51;101735.09;;;19.88;62.06
74370;BME280;71062;44.520;11.342;2023-10-09T05:34:36;101730.91;;;19.85;61.84
74370;BME280;71062;44.520;11.342;2023-10-09T05:37:20;101745.13;;;19.99;61.18
74370;BME280;71062;44.520;11.342;2023-10-09T05:39:55;101743.34;;;20.03;60.88
74370;BME280;71062;44.520;11.342;2023-10-09T05:42:31;101737.53;;;20.08;60.33
74370;BME280;71062;44.520;11.342;2023-10-09T05:45:05;101738.66;;;20.07;60.20
74370;BME280;71062;44.520;11.342;2023-10-09T05:47:48;101744.69;;;20.19;60.42
74370;BME280;71062;44.520;11.342;2023-10-09T05:50:27;101742.66;;;20.33;60.02
74370;BME280;71062;44.520;11.342;2023-10-09T05:52:54;101752.16;;;20.42;59.37
74370;BME280;71062;44.520;11.342;2023-10-09T05:55:22;101743.19;;;20.35;59.26
74370;BME280;71062;44.520;11.342;2023-10-09T05:57:54;101742.66;;;20.33;59.15
74370;BME280;71062;44.520;11.342;2023-10-09T06:00:29;101759.31;;;20.53;58.87
74370;BME280;71062;44.520;11.342;2023-10-09T06:03:13;101759.56;;;20.65;58.31
74370;BME280;71062;44.520;11.342;2023-10-09T06:05:54;101749.56;;;20.54;58.21
74370;BME280;71062;44.520;11.342;2023-10-09T06:08:28;101766.00;;;20.71;58.42
74370;BME280;71062;44.520;11.342;2023-10-09T06:11:07;101752.75;;;20.75;57.75
74370;BME280;71062;44.520;11.342;2023-10-09T06:13:51;101756.25;;;20.72;57.70
74370;BME280;71062;44.520;11.342;2023-10-09T06:16:29;101752.94;;;20.56;58.03
74370;BME280;71062;44.520;11.342;2023-10-09T06:19:10;101755.88;;;20.65;57.78
74370;BME280;71062;44.520;11.342;2023-10-09T06:21:46;101745.94;;;20.62;59.24
74370;BME280;71062;44.520;11.342;2023-10-09T06:24:18;101757.25;;;21.12;57.89
74370;BME280;71062;44.520;11.342;2023-10-09T06:26:47;101773.41;;;21.47;56.82
74370;BME280;71062;44.520;11.342;2023-10-09T06:29:28;101756.00;;;21.57;56.12
74370;BME280;71062;44.520;11.342;2023-10-09T06:32:11;101746.78;;;21.68;56.02
74370;BME280;71062;44.520;11.342;2023-10-09T06:34:57;101757.38;;;21.68;56.76
74370;BME280;71062;44.520;11.342;2023-10-09T06:37:46;101755.84;;;21.62;55.26
74370;BME280;71062;44.520;11.342;2023-10-09T06:40:33;101757.59;;;21.41;56.42
74370;BME280;71062;44.520;11.342;2023-10-09T06:43:05;101763.84;;;21.43;55.96
74370;BME280;71062;44.520;11.342;2023-10-09T06:45:38;101766.31;;;21.36;55.99
74370;BME280;71062;44.520;11.342;2023-10-09T06:48:10;101773.22;;;21.43;57.30
74370;BME280;71062;44.520;11.342;2023-10-09T06:51:02;101766.19;;;21.80;56.60
74370;BME280;71062;44.520;11.342;2023-10-09T06:53:40;101779.44;;;22.15;55.40
74370;BME280;71062;44.520;11.342;2023-10-09T06:56:21;101777.44;;;22.24;53.98
74370;BME280;71062;44.520;11.342;2023-10-09T06:59:06;101772.38;;;22.21;54.26
74370;BME280;71062;44.520;11.342;2023-10-09T07:01:46;101785.34;;;22.27;54.25
74370;BME280;71062;44.520;11.342;2023-10-09T07:04:16;101785.84;;;22.12;54.77
74370;BME280;71062;44.520;11.342;2023-10-09T07:06:45;101782.59;;;21.96;56.78
74370;BME280;71062;44.520;11.342;2023-10-09T07:09:10;101787.22;;;22.23;56.08
74370;BME280;71062;44.520;11.342;2023-10-09T07:11:37;101780.78;;;22.09;57.80
74370;BME280;71062;44.520;11.342;2023-10-09T07:14:10;101776.56;;;22.06;56.06
74370;BME280;71062;44.520;11.342;2023-10-09T07:19:32;101786.38;;;22.40;54.92
74370;BME280;71062;44.520;11.342;2023-10-09T07:22:21;101787.75;;;22.42;56.78
74370;BME280;71062;44.520;11.342;2023-10-09T07:24:52;101789.25;;;22.48;57.05
74370;BME280;71062;44.520;11.342;2023-10-09T07:27:31;101789.00;;;22.58;56.70
74370;BME280;71062;44.520;11.342;2023-10-09T07:30:16;101785.59;;;22.73;56.72
74370;BME280;71062;44.520;11.342;2023-10-09T07:33:01;101789.66;;;22.89;56.07
74370;BME280;71062;44.520;11.342;2023-10-09T07:35:40;101787.28;;;23.08;55.15
74370;BME280;71062;44.520;11.342;2023-10-09T07:38:11;101796.03;;;23.20;52.48
74370;BME280;71062;44.520;11.342;2023-10-09T07:40:41;101797.41;;;23.14;53.67
74370;BME280;71062;44.520;11.342;2023-10-09T07:43:36;101787.75;;;23.27;53.33
74370;BME280;71062;44.520;11.342;2023-10-09T07:46:15;101793.34;;;23.15;53.41
74370;BME280;71062;44.520;11.342;2023-10-09T07:49:04;101802.63;;;23.30;53.41
74370;BME280;71062;44.520;11.342;2023-10-09T07:51:38;101796.69;;;23.35;52.60
74370;BME280;71062;44.520;11.342;2023-10-09T07:54:04;101787.19;;;23.60;54.84
74370;BME280;71062;44.520;11.342;2023-10-09T07:56:34;101799.22;;;23.91;52.45
74370;BME280;71062;44.520;11.342;2023-10-09T07:59:07;101787.66;;;23.70;50.39
74370;BME280;71062;44.520;11.342;2023-10-09T08:01:40;101796.16;;;23.96;49.05
74370;BME280;71062;44.520;11.342;2023-10-09T08:04:21;101791.09;;;23.93;49.66
74370;BME280;71062;44.520;11.342;2023-10-09T08:07:08;101786.97;;;24.11;49.93
74370;BME280;71062;44.520;11.342;2023-10-09T08:09:37;101788.34;;;24.34;50.70
74370;BME280;71062;44.520;11.342;2023-10-09T08:12:15;101798.47;;;24.40;47.69
74370;BME280;71062;44.520;11.342;2023-10-09T08:15:20;101794.28;;;24.29;49.02
74370;BME280;71062;44.520;11.342;2023-10-09T08:17:49;101785.75;;;24.41;46.72
74370;BME280;71062;44.520;11.342;2023-10-09T08:20:36;101785.63;;;24.58;47.10
74370;BME280;71062;44.520;11.342;2023-10-09T08:23:20;101776.53;;;24.56;47.05
74370;BME280;71062;44.520;11.342;2023-10-09T08:26:04;101777.50;;;24.60;46.43
74370;BME280;71062;44.520;11.342;2023-10-09T08:28:43;101780.41;;;24.81;46.52
74370;BME280;71062;44.520;11.342;2023-10-09T08:31:11;101781.66;;;24.92;46.69
74370;BME280;71062;44.520;11.342;2023-10-09T08:33:55;101777.25;;;24.94;46.04
74370;BME280;71062;44.520;11.342;2023-10-09T08:36:28;101781.88;;;24.87;46.37
74370;BME280;71062;44.520;11.342;2023-10-09T08:38:57;101785.72;;;25.11;46.07
74370;BME280;71062;44.520;11.342;2023-10-09T08:41:24;101791.97;;;25.13;46.28
74370;BME280;71062;44.520;11.342;2023-10-09T08:43:56;101776.25;;;24.90;45.05
74370;BME280;71062;44.520;11.342;2023-10-09T08:46:27;101789.03;;;25.01;45.76
74370;BME280;71062;44.520;11.342;2023-10-09T08:48:55;101781.47;;;25.29;45.55
74370;BME280;71062;44.520;11.342;2023-10-09T08:51:22;101777.69;;;25.50;47.01
74370;BME280;71062;44.520;11.342;2023-10-09T08:53:49;101783.72;;;25.57;44.66
74370;BME280;71062;44.520;11.342;2023-10-09T08:56:19;101779.91;;;25.65;45.29
74370;BME280;71062;44.520;11.342;2023-10-09T08:58:57;101792.88;;;25.83;45.49
74370;BME280;71062;44.520;11.342;2023-10-09T09:01:23;101775.00;;;25.89;44.63
74370;BME280;71062;44.520;11.342;2023-10-09T09:03:51;101774.94;;;26.10;44.05
74370;BME280;71062;44.520;11.342;2023-10-09T09:06:17;101770.34;;;26.21;43.42
74370;BME280;71062;44.520;11.342;2023-10-09T09:08:45;101767.00;;;26.19;43.99
74370;BME280;71062;44.520;11.342;2023-10-09T09:11:12;101773.22;;;26.45;44.04
74370;BME280;71062;44.520;11.342;2023-10-09T09:13:42;101778.00;;;26.53;43.92
74370;BME280;71062;44.520;11.342;2023-10-09T09:16:15;101772.72;;;26.67;43.81
74370;BME280;71062;44.520;11.342;2023-10-09T09:19:01;101764.53;;;26.69;43.15
74370;BME280;71062;44.520;11.342;2023-10-09T09:21:37;101773.38;;;26.88;42.24
74370;BME280;71062;44.520;11.342;2023-10-09T09:24:08;101770.44;;;27.00;41.83
74370;BME280;71062;44.520;11.342;2023-10-09T09:27:01;101762.09;;;26.83;41.84
74370;BME280;71062;44.520;11.342;2023-10-09T09:29:44;101765.44;;;27.13;42.65
74370;BME280;71062;44.520;11.342;2023-10-09T09:32:27;101752.63;;;26.98;41.91
74370;BME280;71062;44.520;11.342;2023-10-09T09:34:55;101753.00;;;27.24;41.59
74370;BME280;71062;44.520;11.342;2023-10-09T09:37:29;101755.31;;;27.46;41.10
74370;BME280;71062;44.520;11.342;2023-10-09T09:40:17;101752.34;;;27.59;40.94
74370;BME280;71062;44.520;11.342;2023-10-09T09:43:00;101739.47;;;27.56;41.73
74370;BME280;71062;44.520;11.342;2023-10-09T09:45:36;101738.09;;;27.50;40.31
74370;BME280;71062;44.520;11.342;2023-10-09T09:48:02;101728.97;;;27.79;39.70
74370;BME280;71062;44.520;11.342;2023-10-09T09:50:34;101734.75;;;27.95;40.36
74370;BME280;71062;44.520;11.342;2023-10-09T09:53:09;101720.00;;;27.84;39.88
74370;BME280;71062;44.520;11.342;2023-10-09T09:55:45;101734.06;;;27.86;40.99
74370;BME280;71062;44.520;11.342;2023-10-09T09:58:18;101723.66;;;27.97;38.89
74370;BME280;71062;44.520;11.342;2023-10-09T10:00:50;101710.19;;;27.89;39.57
74370;BME280;71062;44.520;11.342;2023-10-09T10:03:26;101714.47;;;28.26;39.22
74370;BME280;71062;44.520;11.342;2023-10-09T10:05:54;101707.00;;;28.25;38.11
74370;BME280;71062;44.520;11.342;2023-10-09T10:08:23;101706.09;;;28.21;37.27
74370;BME280;71062;44.520;11.342;2023-10-09T10:11:44;101706.84;;;28.18;38.04
74370;BME280;71062;44.520;11.342;2023-10-09T10:14:13;101691.47;;;28.14;37.25
74370;BME280;71062;44.520;11.342;2023-10-09T10:17:05;101696.94;;;28.19;37.34
74370;BME280;71062;44.520;11.342;2023-10-09T10:22:29;101701.31;;;28.63;36.74
74370;BME280;71062;44.520;11.342;2023-10-09T10:24:58;101696.28;;;28.79;38.64
74370;BME280;71062;44.520;11.342;2023-10-09T10:27:28;101680.44;;;28.54;36.75
74370;BME280;71062;44.520;11.342;2023-10-09T10:32:57;101690.66;;;28.67;36.67
74370;BME280;71062;44.520;11.342;2023-10-09T10:35:24;101677.53;;;28.92;37.52
74370;BME280;71062;44.520;11.342;2023-10-09T10:38:34;101678.31;;;28.70;36.52
74370;BME280;71062;44.520;11.342;2023-10-09T10:41:12;101669.63;;;28.89;36.63
74370;BME280;71062;44.520;11.342;2023-10-09T10:43:46;101666.03;;;29.15;37.56
74370;BME280;71062;44.520;11.342;2023-10-09T10:46:22;101653.31;;;29.19;36.62
74370;BME280;71062;44.520;11.342;2023-10-09T10:49:05;101665.50;;;29.09;36.87
74370;BME280;71062;44.520;11.342;2023-10-09T10:51:43;101658.19;;;28.96;36.81
74370;BME280;71062;44.520;11.342;2023-10-09T10:54:22;101650.66;;;28.92;36.37
74370;BME280;71062;44.520;11.342;2023-10-09T10:56:57;101630.16;;;29.00;35.34
74370;BME280;71062;44.520;11.342;2023-10-09T10:59:24;101641.53;;;29.31;35.11
74370;BME280;71062;44.520;11.342;2023-10-09T11:01:52;101637.41;;;29.32;35.39
74370;BME280;71062;44.520;11.342;2023-10-09T11:04:39;101631.66;;;29.58;35.77
74370;BME280;71062;44.520;11.342;2023-10-09T11:07:07;101622.47;;;29.76;36.11
74370;BME280;71062;44.520;11.342;2023-10-09T11:09:48;101617.59;;;29.83;36.10
74370;BME280;71062;44.520;11.342;2023-10-09T11:12:23;101610.44;;;29.74;34.71
74370;BME280;71062;44.520;11.342;2023-10-09T11:14:50;101598.19;;;30.13;35.02
74370;BME280;71062;44.520;11.342;2023-10-09T11:17:36;101596.22;;;31.20;32.94
74370;BME280;71062;44.520;11.342;2023-10-09T11:20:08;101592.94;;;31.72;31.88
74370;BME280;71062;44.520;11.342;2023-10-09T11:22:57;101569.59;;;32.20;31.54
74370;BME280;71062;44.520;11.342;2023-10-09T11:25:39;101584.66;;;32.36;31.36
74370;BME280;71062;44.520;11.342;2023-10-09T11:28:19;101580.56;;;32.47;30.99
74370;BME280;71062;44.520;11.342;2023-10-09T11:31:13;101568.09;;;32.47;30.67
74370;BME280;71062;44.520;11.342;2023-10-09T11:33:49;101570.63;;;32.59;31.56
74370;BME280;71062;44.520;11.342;2023-10-09T11:36:25;101552.97;;;32.17;31.37
74370;BME280;71062;44.520;11.342;2023-10-09T11:39:01;101553.00;;;32.20;31.50
74370;BME280;71062;44.520;11.342;2023-10-09T11:41:44;101560.28;;;32.79;30.89
74370;BME280;71062;44.520;11.342;2023-10-09T11:44:10;101552.75;;;32.57;30.72
74370;BME280;71062;44.520;11.342;2023-10-09T11:46:57;101556.25;;;33.22;30.11
74370;BME280;71062;44.520;11.342;2023-10-09T11:49:23;101551.66;;;33.70;28.99
74370;BME280;71062;44.520;11.342;2023-10-09T11:52:08;101535.44;;;33.27;30.53
74370;BME280;71062;44.520;11.342;2023-10-09T11:54:37;101538.72;;;33.71;30.28
74370;BME280;71062;44.520;11.342;2023-10-09T11:57:03;101535.78;;;33.85;29.02
74370;BME280;71062;44.520;11.342;2023-10-09T11:59:30;101541.63;;;34.00;29.10
74370;BME280;71062;44.520;11.342;2023-10-09T12:02:08;101531.44;;;34.50;27.66
74370;BME280;71062;44.520;11.342;2023-10-09T12:04:53;101532.03;;;33.92;29.18
74370;BME280;71062;44.520;11.342;2023-10-09T12:07:24;101525.69;;;34.29;28.76
74370;BME280;71062;44.520;11.342;2023-10-09T12:09:50;101529.16;;;33.81;28.67
74370;BME280;71062;44.520;11.342;2023-10-09T12:12:21;101525.03;;;33.44;29.79
74370;BME280;71062;44.520;11.342;2023-10-09T12:14:51;101526.63;;;33.91;29.20
74370;BME280;71062;44.520;11.342;2023-10-09T12:17:18;101527.06;;;34.86;27.70
74370;BME280;71062;44.520;11.342;2023-10-09T12:19:44;101508.19;;;34.25;28.51
74370;BME280;71062;44.520;11.342;2023-10-09T12:22:09;101503.03;;;34.54;27.91
74370;BME280;71062;44.520;11.342;2023-10-09T12:24:41;101504.47;;;34.18;28.68
74370;BME280;71062;44.520;11.342;2023-10-09T12:27:11;101499.56;;;33.94;29.06
74370;BME280;71062;44.520;11.342;2023-10-09T12:29:37;101494.94;;;33.89;28.92
74370;BME280;71062;44.520;11.342;2023-10-09T12:32:03;101484.19;;;34.69;27.99
74370;BME280;71062;44.520;11.342;2023-10-09T12:34:29;101484.50;;;34.85;27.54
74370;BME280;71062;44.520;11.342;2023-10-09T12:36:57;101486.44;;;34.37;28.29
74370;BME280;71062;44.520;11.342;2023-10-09T12:39:27;101479.47;;;34.17;28.92
74370;BME280;71062;44.520;11.342;2023-10-09T12:41:59;101483.19;;;34.97;27.75
74370;BME280;71062;44.520;11.342;2023-10-09T12:44:32;101473.16;;;35.45;26.44
74370;BME280;71062;44.520;11.342;2023-10-09T12:47:05;101467.09;;;35.66;26.93
74370;BME280;71062;44.520;11.342;2023-10-09T12:49:31;101468.06;;;36.24;25.82
74370;BME280;71062;44.520;11.342;2023-10-09T12:51:57;101469.22;;;36.00;25.34
74370;BME280;71062;44.520;11.342;2023-10-09T12:54:27;101464.13;;;35.26;26.22
74370;BME280;71062;44.520;11.342;2023-10-09T12:56:53;101459.59;;;35.65;26.81
74370;BME280;71062;44.520;11.342;2023-10-09T12:59:19;101457.03;;;35.67;25.73
74370;BME280;71062;44.520;11.342;2023-10-09T13:01:46;101442.81;;;36.07;25.96
74370;BME280;71062;44.520;11.342;2023-10-09T13:04:17;101447.00;;;36.36;25.38
74370;BME280;71062;44.520;11.342;2023-10-09T13:06:44;101437.38;;;36.05;25.75
74370;BME280;71062;44.520;11.342;2023-10-09T13:09:14;101443.50;;;34.99;25.84
74370;BME280;71062;44.520;11.342;2023-10-09T13:11:41;101436.72;;;35.90;26.28
74370;BME280;71062;44.520;11.342;2023-10-09T13:14:06;101430.63;;;35.37;25.77
74370;BME280;71062;44.520;11.342;2023-10-09T13:16:52;101429.44;;;36.36;25.05
74370;BME280;71062;44.520;11.342;2023-10-09T13:19:18;101426.84;;;36.41;24.50
74370;BME280;71062;44.520;11.342;2023-10-09T13:21:44;101427.47;;;35.96;25.21
74370;BME280;71062;44.520;11.342;2023-10-09T13:24:10;101420.56;;;36.69;24.64
74370;BME280;71062;44.520;11.342;2023-10-09T13:26:39;101407.81;;;36.83;24.02
74370;BME280;71062;44.520;11.342;2023-10-09T13:29:06;101408.34;;;35.87;24.55
74370;BME280;71062;44.520;11.342;2023-10-09T13:31:35;101410.31;;;36.28;24.37
74370;BME280;71062;44.520;11.342;2023-10-09T13:34:04;101412.63;;;36.43;24.72
74370;BME280;71062;44.520;11.342;2023-10-09T13:36:32;101401.81;;;36.07;24.51